XFX01 NZWN-NZWN
Flight info
| Callsign | XFX01 |
|---|---|
| Flight time | 0h 50m |
| Altitude | 2500 |
| Route | CALIBRATION NZWN |
| Aircraft | PAY4/L-V/N |
Departure
| Time | 2026-04-28 03:58 |
|---|---|
| Airport | Wellington International Airport (NZWN) |
Arrival
| Time | 2026-04-28 04:49 |
|---|---|
| Airport | Wellington International Airport (NZWN) |
| Time | Latitude | Longitude | Altitude | Speed | Heading |
|---|---|---|---|---|---|
| 2026-04-28 03:36 | -41.32802 | 174.80516 | 17 ft | 0 kts | 273° |
| 2026-04-28 03:44 | -41.32802 | 174.80512 | 17 ft | 1 kts | 278° |
| 2026-04-28 03:44 | -41.32801 | 174.80510 | 17 ft | 0 kts | 292° |
| 2026-04-28 03:45 | -41.32798 | 174.80507 | 18 ft | 2 kts | 343° |
| 2026-04-28 03:46 | -41.32755 | 174.80531 | 18 ft | 13 kts | 19° |
| 2026-04-28 03:46 | -41.32677 | 174.80582 | 17 ft | 8 kts | 95° |
| 2026-04-28 03:46 | -41.32677 | 174.80584 | 17 ft | 0 kts | 99° |
| 2026-04-28 03:56 | -41.32689 | 174.80639 | 15 ft | 13 kts | 121° |
| 2026-04-28 03:56 | -41.32726 | 174.80686 | 13 ft | 3 kts | 41° |
| 2026-04-28 03:57 | -41.32719 | 174.80689 | 13 ft | 0 kts | 359° |
| 2026-04-28 03:57 | -41.32717 | 174.80689 | 13 ft | 4 kts | 360° |
| 2026-04-28 03:57 | -41.32512 | 174.80701 | 18 ft | 62 kts | 4° |
| 2026-04-28 03:57 | -41.31902 | 174.80737 | 127 ft | 106 kts | 2° |
| 2026-04-28 03:58 | -41.31054 | 174.80793 | 368 ft | 136 kts | 360° |
| 2026-04-28 03:58 | -41.30052 | 174.80944 | 632 ft | 152 kts | 8° |
| 2026-04-28 03:58 | -41.28957 | 174.81216 | 898 ft | 166 kts | 9° |
| 2026-04-28 03:58 | -41.27780 | 174.81479 | 1222 ft | 174 kts | 13° |
| 2026-04-28 03:59 | -41.26864 | 174.82514 | 1603 ft | 187 kts | 63° |
| 2026-04-28 03:59 | -41.26594 | 174.84242 | 1965 ft | 193 kts | 72° |
| 2026-04-28 03:59 | -41.26702 | 174.86039 | 2308 ft | 210 kts | 113° |
| 2026-04-28 03:59 | -41.27761 | 174.87465 | 2481 ft | 230 kts | 155° |
| 2026-04-28 04:00 | -41.29329 | 174.87725 | 2508 ft | 229 kts | 197° |
| 2026-04-28 04:00 | -41.30664 | 174.86704 | 2506 ft | 218 kts | 234° |
| 2026-04-28 04:00 | -41.31637 | 174.85196 | 2496 ft | 213 kts | 237° |
| 2026-04-28 04:00 | -41.32550 | 174.83655 | 2495 ft | 211 kts | 239° |
| 2026-04-28 04:01 | -41.33710 | 174.82461 | 2476 ft | 224 kts | 203° |
| 2026-04-28 04:01 | -41.35264 | 174.82345 | 2481 ft | 230 kts | 168° |
| 2026-04-28 04:01 | -41.36822 | 174.82983 | 2482 ft | 233 kts | 163° |
| 2026-04-28 04:01 | -41.38345 | 174.83684 | 2484 ft | 236 kts | 162° |
| 2026-04-28 04:02 | -41.39898 | 174.84372 | 2493 ft | 235 kts | 163° |
| 2026-04-28 04:02 | -41.41457 | 174.85042 | 2492 ft | 236 kts | 164° |
| 2026-04-28 04:02 | -41.43021 | 174.85716 | 2493 ft | 236 kts | 164° |
| 2026-04-28 04:02 | -41.44584 | 174.86395 | 2494 ft | 235 kts | 164° |
| 2026-04-28 04:03 | -41.46138 | 174.87072 | 2492 ft | 234 kts | 164° |
| 2026-04-28 04:03 | -41.47720 | 174.87451 | 2426 ft | 230 kts | 187° |
| 2026-04-28 04:03 | -41.49246 | 174.87004 | 2429 ft | 222 kts | 209° |
| 2026-04-28 04:03 | -41.50491 | 174.85880 | 2434 ft | 213 kts | 231° |
| 2026-04-28 04:04 | -41.51321 | 174.84297 | 2435 ft | 206 kts | 251° |
| 2026-04-28 04:04 | -41.51679 | 174.82487 | 2440 ft | 200 kts | 270° |
| 2026-04-28 04:04 | -41.51564 | 174.80670 | 2441 ft | 195 kts | 288° |
| 2026-04-28 04:04 | -41.51019 | 174.79038 | 2438 ft | 193 kts | 306° |
| 2026-04-28 04:05 | -41.50109 | 174.77733 | 2435 ft | 193 kts | 323° |
| 2026-04-28 04:05 | -41.48924 | 174.76891 | 2436 ft | 195 kts | 340° |
| 2026-04-28 04:05 | -41.47575 | 174.76611 | 2437 ft | 199 kts | 358° |
| 2026-04-28 04:05 | -41.46208 | 174.76937 | 2436 ft | 202 kts | 12° |
| 2026-04-28 04:06 | -41.44859 | 174.77461 | 2429 ft | 202 kts | 11° |
| 2026-04-28 04:06 | -41.43513 | 174.77972 | 2407 ft | 199 kts | 13° |
| 2026-04-28 04:06 | -41.42165 | 174.78484 | 2153 ft | 206 kts | 13° |
| 2026-04-28 04:06 | -41.40772 | 174.79015 | 1783 ft | 210 kts | 13° |
| 2026-04-28 04:07 | -41.39394 | 174.79546 | 1403 ft | 202 kts | 13° |
| 2026-04-28 04:07 | -41.38070 | 174.80052 | 1015 ft | 195 kts | 15° |
| 2026-04-28 04:07 | -41.36785 | 174.80541 | 757 ft | 185 kts | 15° |
| 2026-04-28 04:07 | -41.35605 | 174.80991 | 761 ft | 165 kts | 13° |
| 2026-04-28 04:08 | -41.34555 | 174.81412 | 1035 ft | 153 kts | 16° |
| 2026-04-28 04:08 | -41.33887 | 174.81699 | 1040 ft | 154 kts | 13° |
| 2026-04-28 04:08 | -41.32826 | 174.82033 | 1312 ft | 163 kts | 9° |
| 2026-04-28 04:08 | -41.31718 | 174.82399 | 1796 ft | 164 kts | 11° |
| 2026-04-28 04:09 | -41.30598 | 174.82764 | 2273 ft | 168 kts | 9° |
| 2026-04-28 04:09 | -41.29456 | 174.83121 | 2723 ft | 165 kts | 10° |
| 2026-04-28 04:09 | -41.28299 | 174.83510 | 2953 ft | 182 kts | 9° |
| 2026-04-28 04:09 | -41.27013 | 174.83971 | 2993 ft | 199 kts | 9° |
| 2026-04-28 04:10 | -41.25649 | 174.84473 | 2996 ft | 208 kts | 9° |
| 2026-04-28 04:10 | -41.24233 | 174.84977 | 2998 ft | 213 kts | 9° |
| 2026-04-28 04:10 | -41.22796 | 174.85496 | 2987 ft | 215 kts | 12° |
| 2026-04-28 04:10 | -41.21335 | 174.85956 | 2992 ft | 215 kts | 7° |
| 2026-04-28 04:11 | -41.19919 | 174.85592 | 2980 ft | 206 kts | 326° |
| 2026-04-28 04:11 | -41.19093 | 174.84049 | 2988 ft | 214 kts | 292° |
| 2026-04-28 04:11 | -41.18796 | 174.82100 | 3086 ft | 217 kts | 274° |
| 2026-04-28 04:11 | -41.18977 | 174.80127 | 3307 ft | 213 kts | 264° |
| 2026-04-28 04:12 | -41.19133 | 174.78186 | 3432 ft | 213 kts | 271° |
| 2026-04-28 04:12 | -41.19115 | 174.76198 | 3474 ft | 218 kts | 275° |
| 2026-04-28 04:12 | -41.19044 | 174.74170 | 3491 ft | 221 kts | 275° |
| 2026-04-28 04:12 | -41.18994 | 174.72123 | 3491 ft | 223 kts | 275° |
| 2026-04-28 04:13 | -41.18954 | 174.70063 | 3494 ft | 223 kts | 275° |
| 2026-04-28 04:13 | -41.18913 | 174.67999 | 3494 ft | 224 kts | 275° |
| 2026-04-28 04:13 | -41.18869 | 174.65940 | 3497 ft | 222 kts | 273° |
| 2026-04-28 04:13 | -41.18825 | 174.63904 | 3495 ft | 220 kts | 273° |
| 2026-04-28 04:14 | -41.18781 | 174.61884 | 3495 ft | 219 kts | 273° |
| 2026-04-28 04:14 | -41.18737 | 174.59869 | 3499 ft | 218 kts | 273° |
| 2026-04-28 04:14 | -41.18693 | 174.57868 | 3498 ft | 216 kts | 273° |
| 2026-04-28 04:14 | -41.18914 | 174.55906 | 3487 ft | 219 kts | 251° |
| 2026-04-28 04:15 | -41.19771 | 174.54224 | 3483 ft | 225 kts | 226° |
| 2026-04-28 04:15 | -41.21085 | 174.53057 | 3487 ft | 228 kts | 215° |
| 2026-04-28 04:15 | -41.23903 | 174.51153 | 3499 ft | 226 kts | 206° |
| 2026-04-28 04:16 | -41.25359 | 174.50394 | 3496 ft | 225 kts | 206° |
| 2026-04-28 04:16 | -41.26851 | 174.49754 | 3494 ft | 225 kts | 200° |
| 2026-04-28 04:16 | -41.28377 | 174.49236 | 3494 ft | 227 kts | 200° |
| 2026-04-28 04:16 | -41.29930 | 174.48845 | 3491 ft | 228 kts | 194° |
| 2026-04-28 04:17 | -41.31508 | 174.48586 | 3483 ft | 229 kts | 192° |
| 2026-04-28 04:17 | -41.33105 | 174.48463 | 3482 ft | 231 kts | 188° |
| 2026-04-28 04:17 | -41.34711 | 174.48475 | 3482 ft | 231 kts | 183° |
| 2026-04-28 04:17 | -41.36323 | 174.48628 | 3483 ft | 232 kts | 179° |
| 2026-04-28 04:18 | -41.37933 | 174.48918 | 3484 ft | 234 kts | 175° |
| 2026-04-28 04:18 | -41.39514 | 174.49344 | 3477 ft | 236 kts | 174° |
| 2026-04-28 04:18 | -41.41099 | 174.49917 | 3477 ft | 237 kts | 168° |
| 2026-04-28 04:18 | -41.42665 | 174.50635 | 3477 ft | 238 kts | 163° |
| 2026-04-28 04:19 | -41.44189 | 174.51491 | 3492 ft | 237 kts | 160° |
| 2026-04-28 04:19 | -41.45656 | 174.52468 | 3489 ft | 236 kts | 156° |
| 2026-04-28 04:19 | -41.47070 | 174.53575 | 3487 ft | 236 kts | 154° |
| 2026-04-28 04:19 | -41.48430 | 174.54805 | 3484 ft | 237 kts | 147° |
| 2026-04-28 04:20 | -41.49737 | 174.56162 | 3478 ft | 238 kts | 145° |
| 2026-04-28 04:20 | -41.50974 | 174.57637 | 3479 ft | 239 kts | 140° |
| 2026-04-28 04:20 | -41.52142 | 174.59227 | 3478 ft | 240 kts | 137° |
| 2026-04-28 04:20 | -41.53231 | 174.60923 | 3475 ft | 240 kts | 132° |
| 2026-04-28 04:21 | -41.54233 | 174.62714 | 3472 ft | 241 kts | 129° |
| 2026-04-28 04:21 | -41.55143 | 174.64596 | 3474 ft | 242 kts | 124° |
| 2026-04-28 04:21 | -41.55924 | 174.66474 | 3475 ft | 220 kts | 121° |
| 2026-04-28 04:21 | -41.56568 | 174.68282 | 3477 ft | 214 kts | 114° |
| 2026-04-28 04:22 | -41.56992 | 174.70169 | 3474 ft | 212 kts | 89° |
| 2026-04-28 04:22 | -41.56622 | 174.72018 | 3481 ft | 205 kts | 55° |
| 2026-04-28 04:22 | -41.55623 | 174.73269 | 3481 ft | 195 kts | 22° |
| 2026-04-28 04:22 | -41.54363 | 174.73829 | 3488 ft | 190 kts | 10° |
| 2026-04-28 04:23 | -41.53090 | 174.74314 | 3492 ft | 191 kts | 11° |
| 2026-04-28 04:23 | -41.51812 | 174.74795 | 3491 ft | 191 kts | 10° |
| 2026-04-28 04:23 | -41.50534 | 174.75287 | 3491 ft | 192 kts | 12° |
| 2026-04-28 04:23 | -41.49237 | 174.75782 | 3350 ft | 198 kts | 11° |
| 2026-04-28 04:24 | -41.47889 | 174.76296 | 3108 ft | 204 kts | 11° |
| 2026-04-28 04:24 | -41.46514 | 174.76827 | 2872 ft | 206 kts | 13° |
| 2026-04-28 04:24 | -41.45128 | 174.77356 | 2625 ft | 207 kts | 13° |
| 2026-04-28 04:24 | -41.43749 | 174.77880 | 2368 ft | 204 kts | 12° |
| 2026-04-28 04:25 | -41.42401 | 174.78396 | 2120 ft | 199 kts | 12° |
| 2026-04-28 04:25 | -41.41087 | 174.78898 | 1865 ft | 195 kts | 13° |
| 2026-04-28 04:25 | -41.39783 | 174.79396 | 1607 ft | 194 kts | 13° |
| 2026-04-28 04:25 | -41.38492 | 174.79885 | 1354 ft | 192 kts | 14° |
| 2026-04-28 04:26 | -41.37234 | 174.80352 | 1070 ft | 177 kts | 12° |
| 2026-04-28 04:26 | -41.36090 | 174.80504 | 828 ft | 153 kts | 359° |
| 2026-04-28 04:26 | -41.35085 | 174.80541 | 535 ft | 136 kts | 4° |
| 2026-04-28 04:26 | -41.34180 | 174.80595 | 232 ft | 125 kts | 1° |
| 2026-04-28 04:27 | -41.33352 | 174.80643 | 29 ft | 112 kts | 3° |
| 2026-04-28 04:27 | -41.32645 | 174.80693 | 16 ft | 95 kts | 3° |
| 2026-04-28 04:27 | -41.31887 | 174.80751 | 264 ft | 119 kts | 2° |
| 2026-04-28 04:27 | -41.30999 | 174.80838 | 666 ft | 134 kts | 4° |
| 2026-04-28 04:28 | -41.30037 | 174.80946 | 1163 ft | 142 kts | 6° |
| 2026-04-28 04:28 | -41.29044 | 174.81094 | 1514 ft | 157 kts | 12° |
| 2026-04-28 04:28 | -41.28049 | 174.81924 | 1618 ft | 187 kts | 41° |
| 2026-04-28 04:28 | -41.27455 | 174.83583 | 1611 ft | 213 kts | 74° |
| 2026-04-28 04:29 | -41.27620 | 174.85591 | 1567 ft | 228 kts | 105° |
| 2026-04-28 04:29 | -41.28691 | 174.87113 | 1659 ft | 235 kts | 159° |
| 2026-04-28 04:29 | -41.30307 | 174.87152 | 1534 ft | 234 kts | 206° |
| 2026-04-28 04:29 | -41.31798 | 174.86416 | 1654 ft | 230 kts | 200° |
| 2026-04-28 04:30 | -41.33329 | 174.85750 | 1630 ft | 235 kts | 202° |
| 2026-04-28 04:30 | -41.34868 | 174.85034 | 1534 ft | 238 kts | 201° |
| 2026-04-28 04:30 | -41.36419 | 174.84296 | 1569 ft | 237 kts | 204° |
| 2026-04-28 04:30 | -41.37984 | 174.83536 | 1362 ft | 236 kts | 216° |
| 2026-04-28 04:31 | -41.38858 | 174.81864 | 1542 ft | 208 kts | 266° |
| 2026-04-28 04:31 | -41.38503 | 174.80164 | 1577 ft | 192 kts | 323° |
| 2026-04-28 04:31 | -41.37222 | 174.79954 | 1181 ft | 201 kts | 18° |
| 2026-04-28 04:31 | -41.35931 | 174.80428 | 781 ft | 189 kts | 9° |
| 2026-04-28 04:32 | -41.34658 | 174.80556 | 451 ft | 174 kts | 3° |
| 2026-04-28 04:32 | -41.33488 | 174.80646 | 110 ft | 161 kts | 1° |
| 2026-04-28 04:32 | -41.32466 | 174.80711 | 198 ft | 147 kts | 2° |
| 2026-04-28 04:32 | -41.31428 | 174.80793 | 602 ft | 150 kts | 2° |
| 2026-04-28 04:33 | -41.30345 | 174.80897 | 875 ft | 158 kts | 2° |
| 2026-04-28 04:33 | -41.29256 | 174.80964 | 1375 ft | 153 kts | 2° |
| 2026-04-28 04:33 | -41.28299 | 174.81661 | 1471 ft | 180 kts | 46° |
| 2026-04-28 04:33 | -41.27973 | 174.83359 | 1576 ft | 202 kts | 91° |
| 2026-04-28 04:34 | -41.28659 | 174.84992 | 1530 ft | 220 kts | 136° |
| 2026-04-28 04:34 | -41.30080 | 174.85709 | 1449 ft | 216 kts | 184° |
| 2026-04-28 04:34 | -41.31481 | 174.85332 | 1535 ft | 201 kts | 196° |
| 2026-04-28 04:34 | -41.32836 | 174.84884 | 1532 ft | 202 kts | 198° |
| 2026-04-28 04:35 | -41.34213 | 174.84354 | 1466 ft | 204 kts | 201° |
| 2026-04-28 04:35 | -41.35528 | 174.83775 | 1482 ft | 204 kts | 202° |
| 2026-04-28 04:35 | -41.36889 | 174.83137 | 1323 ft | 208 kts | 201° |
| 2026-04-28 04:35 | -41.38267 | 174.82650 | 1385 ft | 201 kts | 189° |
| 2026-04-28 04:36 | -41.39645 | 174.82338 | 1319 ft | 202 kts | 203° |
| 2026-04-28 04:36 | -41.40518 | 174.81052 | 1145 ft | 183 kts | 264° |
| 2026-04-28 04:36 | -41.40237 | 174.79629 | 1149 ft | 148 kts | 318° |
| 2026-04-28 04:36 | -41.39343 | 174.79328 | 788 ft | 138 kts | 21° |
| 2026-04-28 04:37 | -41.38484 | 174.79863 | 776 ft | 138 kts | 23° |
| 2026-04-28 04:37 | -41.37552 | 174.80312 | 658 ft | 146 kts | 8° |
| 2026-04-28 04:37 | -41.36530 | 174.80445 | 569 ft | 147 kts | 4° |
| 2026-04-28 04:37 | -41.35498 | 174.80511 | 436 ft | 147 kts | 2° |
| 2026-04-28 04:38 | -41.34473 | 174.80573 | 262 ft | 145 kts | 2° |
| 2026-04-28 04:38 | -41.33511 | 174.80632 | 59 ft | 131 kts | 4° |
| 2026-04-28 04:38 | -41.32685 | 174.80690 | 14 ft | 107 kts | 3° |
| 2026-04-28 04:38 | -41.31875 | 174.80752 | 226 ft | 129 kts | 3° |
| 2026-04-28 04:39 | -41.30948 | 174.80834 | 639 ft | 140 kts | 5° |
| 2026-04-28 04:39 | -41.29923 | 174.80906 | 1036 ft | 154 kts | 2° |
| 2026-04-28 04:39 | -41.28850 | 174.80897 | 1472 ft | 157 kts | 347° |
| 2026-04-28 04:39 | -41.28126 | 174.79796 | 1539 ft | 190 kts | 276° |
| 2026-04-28 04:40 | -41.28917 | 174.78353 | 1674 ft | 220 kts | 206° |
| 2026-04-28 04:40 | -41.30471 | 174.78020 | 1618 ft | 233 kts | 187° |
| 2026-04-28 04:40 | -41.31910 | 174.78604 | 1574 ft | 220 kts | 121° |
| 2026-04-28 04:40 | -41.32411 | 174.80420 | 1549 ft | 207 kts | 101° |
| 2026-04-28 04:41 | -41.32744 | 174.82281 | 1495 ft | 210 kts | 98° |
| 2026-04-28 04:41 | -41.32809 | 174.84172 | 1246 ft | 205 kts | 62° |
| 2026-04-28 04:41 | -41.31712 | 174.85006 | 1130 ft | 181 kts | 4° |
| 2026-04-28 04:41 | -41.30438 | 174.85102 | 1069 ft | 188 kts | 1° |
| 2026-04-28 04:42 | -41.29130 | 174.85132 | 1047 ft | 189 kts | 358° |
| 2026-04-28 04:42 | -41.27828 | 174.85033 | 1100 ft | 181 kts | 348° |
| 2026-04-28 04:42 | -41.26762 | 174.84263 | 1119 ft | 189 kts | 301° |
| 2026-04-28 04:42 | -41.26783 | 174.82581 | 920 ft | 196 kts | 237° |
| 2026-04-28 04:43 | -41.27848 | 174.81645 | 886 ft | 171 kts | 211° |
| 2026-04-28 04:43 | -41.28880 | 174.81033 | 645 ft | 155 kts | 200° |
| 2026-04-28 04:43 | -41.29898 | 174.80862 | 404 ft | 143 kts | 175° |
| 2026-04-28 04:43 | -41.30841 | 174.80803 | 285 ft | 125 kts | 180° |
| 2026-04-28 04:44 | -41.31683 | 174.80759 | 108 ft | 118 kts | 184° |
| 2026-04-28 04:44 | -41.32478 | 174.80703 | 17 ft | 108 kts | 182° |
| 2026-04-28 04:44 | -41.33284 | 174.80649 | 48 ft | 135 kts | 182° |
| 2026-04-28 04:44 | -41.34297 | 174.80608 | 451 ft | 153 kts | 179° |
| 2026-04-28 04:45 | -41.35411 | 174.80682 | 899 ft | 170 kts | 161° |
| 2026-04-28 04:45 | -41.36257 | 174.81791 | 1206 ft | 181 kts | 104° |
| 2026-04-28 04:45 | -41.36043 | 174.83352 | 1412 ft | 179 kts | 47° |
| 2026-04-28 04:45 | -41.34995 | 174.84231 | 1518 ft | 182 kts | 12° |
| 2026-04-28 04:46 | -41.33751 | 174.84510 | 1650 ft | 186 kts | 4° |
| 2026-04-28 04:46 | -41.32466 | 174.84679 | 1512 ft | 191 kts | 4° |
| 2026-04-28 04:46 | -41.31161 | 174.84803 | 1490 ft | 182 kts | 359° |
| 2026-04-28 04:46 | -41.29921 | 174.84829 | 1456 ft | 180 kts | 359° |
| 2026-04-28 04:47 | -41.28636 | 174.84786 | 1271 ft | 181 kts | 354° |
| 2026-04-28 04:47 | -41.27518 | 174.84346 | 1164 ft | 167 kts | 319° |
| 2026-04-28 04:47 | -41.27123 | 174.82943 | 1047 ft | 170 kts | 267° |
| 2026-04-28 04:47 | -41.27534 | 174.81493 | 919 ft | 178 kts | 222° |
| 2026-04-28 04:48 | -41.28626 | 174.80894 | 744 ft | 162 kts | 191° |
| 2026-04-28 04:48 | -41.29693 | 174.80848 | 513 ft | 141 kts | 176° |
| 2026-04-28 04:48 | -41.30603 | 174.80815 | 324 ft | 122 kts | 183° |
| 2026-04-28 04:48 | -41.31424 | 174.80772 | 133 ft | 116 kts | 184° |
| 2026-04-28 04:49 | -41.32235 | 174.80723 | 26 ft | 115 kts | 181° |
| 2026-04-28 04:49 | -41.32771 | 174.80689 | 13 ft | 35 kts | 178° |
| 2026-04-28 04:49 | -41.32915 | 174.80673 | 15 ft | 6 kts | 315° |
| 2026-04-28 04:49 | -41.32821 | 174.80680 | 13 ft | 22 kts | 4° |
| 2026-04-28 04:50 | -41.32683 | 174.80656 | 15 ft | 13 kts | 294° |
| 2026-04-28 04:50 | -41.32694 | 174.80550 | 18 ft | 3 kts | 320° |
| 2026-04-28 04:50 | -41.32692 | 174.80549 | 18 ft | 0 kts | 358° |
| 2026-04-28 05:07 | -41.32690 | 174.80549 | 18 ft | 0 kts | 11° |
| 2026-04-28 05:07 | -41.32686 | 174.80552 | 18 ft | 2 kts | 38° |
| 2026-04-28 05:08 | -41.32680 | 174.80624 | 16 ft | 15 kts | 93° |
| 2026-04-28 05:08 | -41.32687 | 174.80787 | 13 ft | 14 kts | 108° |
| 2026-04-28 05:08 | -41.32798 | 174.80811 | 13 ft | 20 kts | 183° |
| 2026-04-28 05:08 | -41.32906 | 174.80804 | 13 ft | 9 kts | 182° |
| 2026-04-28 05:09 | -41.32937 | 174.80811 | 13 ft | 1 kts | 234° |
| 2026-04-28 05:09 | -41.32934 | 174.80803 | 13 ft | 3 kts | 345° |
| 2026-04-28 05:09 | -41.32788 | 174.80810 | 13 ft | 34 kts | 4° |
| 2026-04-28 05:09 | -41.32581 | 174.80825 | 14 ft | 25 kts | 2° |
| 2026-04-28 05:10 | -41.32395 | 174.80838 | 19 ft | 26 kts | 3° |
| 2026-04-28 05:10 | -41.32209 | 174.80849 | 24 ft | 24 kts | 2° |
| 2026-04-28 05:10 | -41.32056 | 174.80861 | 27 ft | 21 kts | 3° |
| 2026-04-28 05:10 | -41.31908 | 174.80860 | 27 ft | 17 kts | 331° |
| 2026-04-28 05:11 | -41.31917 | 174.80739 | 27 ft | 16 kts | 203° |
| 2026-04-28 05:11 | -41.32048 | 174.80731 | 24 ft | 27 kts | 183° |
| 2026-04-28 05:11 | -41.32447 | 174.80705 | 17 ft | 93 kts | 182° |
| 2026-04-28 05:11 | -41.33264 | 174.80649 | 183 ft | 133 kts | 183° |
| 2026-04-28 05:12 | -41.34272 | 174.80595 | 564 ft | 158 kts | 183° |
| 2026-04-28 05:12 | -41.35429 | 174.80548 | 1052 ft | 171 kts | 182° |
| 2026-04-28 05:12 | -41.36646 | 174.80521 | 1467 ft | 181 kts | 176° |
| 2026-04-28 05:12 | -41.37643 | 174.81445 | 1657 ft | 183 kts | 105° |
| 2026-04-28 05:13 | -41.37274 | 174.82856 | 1653 ft | 169 kts | 20° |
| 2026-04-28 05:13 | -41.36154 | 174.83180 | 1810 ft | 165 kts | 8° |
| 2026-04-28 05:13 | -41.34996 | 174.83478 | 1550 ft | 173 kts | 8° |
| 2026-04-28 05:13 | -41.33865 | 174.83765 | 1677 ft | 159 kts | 9° |
| 2026-04-28 05:14 | -41.32783 | 174.84037 | 1650 ft | 157 kts | 6° |
| 2026-04-28 05:14 | -41.31693 | 174.84206 | 1528 ft | 158 kts | 3° |
| 2026-04-28 05:14 | -41.30606 | 174.84292 | 1489 ft | 156 kts | 1° |
| 2026-04-28 05:14 | -41.29516 | 174.84381 | 1423 ft | 156 kts | 2° |
| 2026-04-28 05:15 | -41.28418 | 174.84429 | 1287 ft | 160 kts | 360° |
| 2026-04-28 05:15 | -41.27384 | 174.84040 | 1100 ft | 165 kts | 314° |
| 2026-04-28 05:15 | -41.27237 | 174.82559 | 1028 ft | 179 kts | 246° |
| 2026-04-28 05:15 | -41.28208 | 174.81487 | 806 ft | 190 kts | 205° |
| 2026-04-28 05:16 | -41.29446 | 174.80915 | 676 ft | 185 kts | 192° |
| 2026-04-28 05:16 | -41.30684 | 174.80806 | 412 ft | 170 kts | 183° |
| 2026-04-28 05:16 | -41.31823 | 174.80746 | 124 ft | 157 kts | 184° |
| 2026-04-28 05:17 | -41.33762 | 174.80629 | 150 ft | 139 kts | 180° |
| 2026-04-28 05:17 | -41.34804 | 174.80683 | 560 ft | 161 kts | 173° |
| 2026-04-28 05:17 | -41.35658 | 174.81580 | 955 ft | 160 kts | 92° |
| 2026-04-28 05:17 | -41.35017 | 174.82612 | 966 ft | 167 kts | 12° |
| 2026-04-28 05:18 | -41.33843 | 174.82975 | 1165 ft | 182 kts | 12° |
| 2026-04-28 05:18 | -41.32569 | 174.83300 | 1260 ft | 191 kts | 7° |
| 2026-04-28 05:18 | -41.31259 | 174.83599 | 1366 ft | 188 kts | 9° |
| 2026-04-28 05:18 | -41.29967 | 174.83870 | 1497 ft | 185 kts | 13° |
| 2026-04-28 05:19 | -41.28950 | 174.84963 | 1540 ft | 209 kts | 58° |
| 2026-04-28 05:19 | -41.28911 | 174.86952 | 1518 ft | 235 kts | 108° |
| 2026-04-28 05:19 | -41.30099 | 174.88267 | 1437 ft | 223 kts | 171° |
| 2026-04-28 05:19 | -41.31491 | 174.87726 | 1266 ft | 205 kts | 227° |
| 2026-04-28 05:20 | -41.31934 | 174.86068 | 897 ft | 193 kts | 289° |
| 2026-04-28 05:20 | -41.31017 | 174.85043 | 790 ft | 175 kts | 348° |
| 2026-04-28 05:20 | -41.29859 | 174.84890 | 888 ft | 167 kts | 358° |
| 2026-04-28 05:20 | -41.28690 | 174.84871 | 869 ft | 165 kts | 358° |
| 2026-04-28 05:21 | -41.27627 | 174.84643 | 1074 ft | 152 kts | 328° |
| 2026-04-28 05:21 | -41.27331 | 174.83372 | 994 ft | 170 kts | 244° |
| 2026-04-28 05:21 | -41.28265 | 174.82356 | 881 ft | 177 kts | 218° |
| 2026-04-28 05:21 | -41.29295 | 174.81405 | 724 ft | 185 kts | 213° |
| 2026-04-28 05:22 | -41.30504 | 174.80819 | 473 ft | 184 kts | 180° |
| 2026-04-28 05:22 | -41.31703 | 174.80757 | 159 ft | 164 kts | 182° |
| 2026-04-28 05:22 | -41.32777 | 174.80684 | 40 ft | 142 kts | 183° |
| 2026-04-28 05:22 | -41.33704 | 174.80622 | 226 ft | 129 kts | 184° |
| 2026-04-28 05:23 | -41.34621 | 174.80539 | 572 ft | 141 kts | 185° |
| 2026-04-28 05:23 | -41.35606 | 174.80206 | 981 ft | 156 kts | 223° |
| 2026-04-28 05:23 | -41.35629 | 174.78969 | 1273 ft | 155 kts | 326° |
| 2026-04-28 05:23 | -41.34521 | 174.78912 | 1433 ft | 168 kts | 4° |
| 2026-04-28 05:24 | -41.33372 | 174.79299 | 1648 ft | 179 kts | 28° |
| 2026-04-28 05:24 | -41.32891 | 174.80899 | 1753 ft | 208 kts | 89° |
| 2026-04-28 05:24 | -41.33304 | 174.82836 | 1556 ft | 222 kts | 117° |
| 2026-04-28 05:24 | -41.34568 | 174.83821 | 1241 ft | 211 kts | 173° |
| 2026-04-28 05:25 | -41.35891 | 174.83685 | 1457 ft | 179 kts | 192° |
| 2026-04-28 05:25 | -41.37019 | 174.83377 | 1410 ft | 155 kts | 207° |
| 2026-04-28 05:25 | -41.37822 | 174.82533 | 1187 ft | 148 kts | 248° |
| 2026-04-28 05:25 | -41.37851 | 174.81281 | 1040 ft | 130 kts | 305° |
| 2026-04-28 05:26 | -41.37108 | 174.80741 | 809 ft | 128 kts | 348° |
| 2026-04-28 05:26 | -41.36215 | 174.80527 | 631 ft | 127 kts | 355° |
| 2026-04-28 05:26 | -41.35384 | 174.80513 | 465 ft | 114 kts | 4° |
| 2026-04-28 05:26 | -41.34626 | 174.80573 | 261 ft | 103 kts | 359° |
| 2026-04-28 05:27 | -41.33906 | 174.80610 | 116 ft | 106 kts | 3° |
| 2026-04-28 05:27 | -41.33175 | 174.80658 | 27 ft | 100 kts | 1° |
| 2026-04-28 05:27 | -41.32677 | 174.80693 | 14 ft | 26 kts | 2° |
| 2026-04-28 05:27 | -41.32524 | 174.80686 | 18 ft | 12 kts | 313° |
| 2026-04-28 05:28 | -41.32535 | 174.80552 | 19 ft | 16 kts | 211° |
| 2026-04-28 05:28 | -41.32566 | 174.80543 | 19 ft | 0 kts | 182° |